createdAt,value
2022-09-07T00:00:44.017Z,1.20
2022-09-07T00:03:11.498Z,1.33
2022-09-07T00:05:43.760Z,1.10
2022-09-07T00:08:11.912Z,1.33
2022-09-07T00:10:39.282Z,1.40
2022-09-07T00:13:08.652Z,1.00
2022-09-07T00:15:40.301Z,1.02
2022-09-07T00:18:07.866Z,1.23
2022-09-07T00:20:35.174Z,1.20
2022-09-07T00:23:02.562Z,1.20
2022-09-07T00:25:31.868Z,1.17
2022-09-07T00:27:59.583Z,1.13
2022-09-07T00:30:26.934Z,1.10
2022-09-07T00:32:54.220Z,1.20
2022-09-07T00:35:21.568Z,1.05
2022-09-07T00:37:48.885Z,1.00
2022-09-07T00:40:16.208Z,1.00
2022-09-07T00:42:43.522Z,1.00
2022-09-07T00:45:19.074Z,1.00
2022-09-07T00:48:13.657Z,0.90
2022-09-07T00:50:47.731Z,1.10
2022-09-07T00:53:27.764Z,1.00
2022-09-07T00:55:56.259Z,0.85
2022-09-07T00:58:25.103Z,1.08
2022-09-07T01:00:52.601Z,1.23
2022-09-07T01:03:24.623Z,1.02
2022-09-07T01:06:04.416Z,0.98
2022-09-07T01:08:32.311Z,1.00
2022-09-07T01:11:01.514Z,1.00
2022-09-07T01:13:29.033Z,1.08
2022-09-07T01:15:56.357Z,0.88
2022-09-07T01:19:08.499Z,0.82
2022-09-07T01:21:45.689Z,0.95
2022-09-07T01:24:37.844Z,0.90
2022-09-07T01:27:35.666Z,1.00
2022-09-07T01:30:10.338Z,1.00
2022-09-07T01:33:17.744Z,0.90
2022-09-07T01:36:03.867Z,0.88
2022-09-07T01:38:45.362Z,0.80
2022-09-07T01:41:31.616Z,0.75
2022-09-07T01:44:22.595Z,1.52
2022-09-07T01:47:12.374Z,0.70
2022-09-07T01:49:54.981Z,0.80
2022-09-07T01:52:33.028Z,0.80
2022-09-07T01:55:16.747Z,0.93
2022-09-07T01:57:49.090Z,0.70
2022-09-07T02:00:19.845Z,0.90
2022-09-07T02:02:52.958Z,0.70
2022-09-07T02:05:36.214Z,0.90
2022-09-07T02:08:18.471Z,0.80
2022-09-07T02:11:14.979Z,1.00
2022-09-07T02:14:09.395Z,0.80
2022-09-07T02:16:44.978Z,0.80
2022-09-07T02:19:17.030Z,0.80
2022-09-07T02:22:00.781Z,0.80
2022-09-07T02:24:37.729Z,0.80
2022-09-07T02:27:12.326Z,0.80
2022-09-07T02:29:39.780Z,0.80
2022-09-07T02:32:07.213Z,0.85
2022-09-07T02:34:34.910Z,0.90
2022-09-07T02:37:05.606Z,0.90
2022-09-07T02:39:34.846Z,0.90
2022-09-07T02:42:02.275Z,0.80
2022-09-07T02:44:34.632Z,0.80
2022-09-07T02:47:16.259Z,0.73
2022-09-07T02:49:49.535Z,0.90
2022-09-07T02:52:16.752Z,0.80
2022-09-07T02:55:27.142Z,0.82
2022-09-07T02:58:03.495Z,0.90
2022-09-07T03:00:35.832Z,0.90
2022-09-07T03:03:30.608Z,0.90
2022-09-07T03:06:04.318Z,0.88
2022-09-07T03:08:41.135Z,0.90
2022-09-07T03:11:09.101Z,0.80
2022-09-07T03:13:36.455Z,0.70
2022-09-07T03:16:03.794Z,1.02
2022-09-07T03:18:31.310Z,0.80
2022-09-07T03:20:58.620Z,0.80
2022-09-07T03:23:25.863Z,0.70
2022-09-07T03:25:53.163Z,0.70
2022-09-07T03:28:20.440Z,0.80
2022-09-07T03:30:48.008Z,0.70
2022-09-07T03:33:16.063Z,0.80
2022-09-07T03:35:44.616Z,0.82
2022-09-07T03:38:12.174Z,0.70
2022-09-07T03:40:39.437Z,0.80
2022-09-07T03:43:06.735Z,0.90
2022-09-07T03:45:34.016Z,0.70
2022-09-07T03:48:01.370Z,0.70
2022-09-07T03:50:29.182Z,1.00
2022-09-07T03:52:56.511Z,0.70
2022-09-07T03:55:23.796Z,0.82
2022-09-07T03:57:51.082Z,0.90
2022-09-07T04:00:18.420Z,0.70
2022-09-07T04:02:45.697Z,0.90
2022-09-07T04:05:12.996Z,0.90
2022-09-07T04:07:41.473Z,1.00
2022-09-07T04:10:09.132Z,0.70
2022-09-07T04:12:36.380Z,0.80
2022-09-07T04:15:03.815Z,0.80
2022-09-07T04:17:31.351Z,0.85
2022-09-07T04:19:58.665Z,1.00
2022-09-07T04:22:25.934Z,0.90
2022-09-07T04:24:53.178Z,1.05
2022-09-07T04:27:20.503Z,0.90
2022-09-07T04:29:48.391Z,0.85
2022-09-07T04:32:16.131Z,1.00
2022-09-07T04:34:43.446Z,0.90
2022-09-07T04:37:10.736Z,1.15
2022-09-07T04:39:38.118Z,1.00
2022-09-07T04:42:05.517Z,1.00
2022-09-07T04:44:32.815Z,1.20
2022-09-07T04:47:00.269Z,1.00
2022-09-07T04:49:27.556Z,0.90
2022-09-07T04:51:54.834Z,1.27
2022-09-07T04:54:22.092Z,0.90
2022-09-07T04:56:49.349Z,0.90
2022-09-07T04:59:16.609Z,0.95
2022-09-07T05:01:43.932Z,1.00
2022-09-07T05:04:11.308Z,1.20
2022-09-07T05:06:38.623Z,1.00
2022-09-07T05:09:05.985Z,1.27
2022-09-07T05:11:33.257Z,1.05
2022-09-07T05:14:02.915Z,1.15
2022-09-07T05:16:31.474Z,0.90
2022-09-07T05:19:01.605Z,1.00
2022-09-07T05:21:31.967Z,1.20
2022-09-07T05:24:00.417Z,1.08
2022-09-07T05:26:29.883Z,1.00
2022-09-07T05:31:45.709Z,1.00
2022-09-07T05:36:56.609Z,1.10
2022-09-07T05:39:24.196Z,1.15
2022-09-07T05:41:51.475Z,1.00
2022-09-07T05:47:06.263Z,1.25
2022-09-07T05:49:33.536Z,1.30
2022-09-07T05:52:01.033Z,1.00
2022-09-07T05:54:28.290Z,1.00
2022-09-07T05:56:55.564Z,1.00
2022-09-07T05:59:22.822Z,1.20
2022-09-07T06:01:50.233Z,1.45
2022-09-07T06:04:17.664Z,1.20
2022-09-07T06:06:54.640Z,1.33
2022-09-07T06:09:32.256Z,1.30
2022-09-07T06:11:59.538Z,1.48
2022-09-07T06:14:26.776Z,1.35
2022-09-07T06:16:54.105Z,1.40
2022-09-07T06:19:21.422Z,1.40
2022-09-07T06:21:48.730Z,1.27
2022-09-07T06:24:16.062Z,1.30
2022-09-07T06:26:43.341Z,1.35
2022-09-07T06:29:10.759Z,1.42
2022-09-07T06:34:25.588Z,1.40
2022-09-07T06:36:52.912Z,1.50
2022-09-07T06:39:20.162Z,1.83
2022-09-07T06:42:02.848Z,2.15
2022-09-07T06:44:30.496Z,2.30
2022-09-07T06:47:05.251Z,1.98
2022-09-07T06:49:32.627Z,2.40
2022-09-07T06:52:00.063Z,2.20
2022-09-07T06:57:14.654Z,1.80
2022-09-07T06:59:41.911Z,2.00
2022-09-07T07:02:14.726Z,2.13
2022-09-07T07:04:42.027Z,2.08
2022-09-07T07:07:13.988Z,1.80
2022-09-07T07:09:42.117Z,1.95
2022-09-07T07:12:10.665Z,1.90
2022-09-07T07:14:39.887Z,2.00
2022-09-07T07:17:09.939Z,2.10
2022-09-07T07:19:37.203Z,2.20
2022-09-07T07:22:42.986Z,2.20
2022-09-07T07:24:51.774Z,1.90
2022-09-07T07:27:19.184Z,2.10
2022-09-07T07:29:46.447Z,1.80
2022-09-07T07:32:13.687Z,1.90
2022-09-07T07:35:18.689Z,2.08
2022-09-07T07:37:46.707Z,2.22
2022-09-07T07:40:16.640Z,2.03
2022-09-07T07:42:45.872Z,2.13
2022-09-07T07:48:00.997Z,2.00
2022-09-07T07:50:32.178Z,2.33
2022-09-07T07:55:47.916Z,2.10
2022-09-07T07:58:15.197Z,1.85
2022-09-07T08:00:58.022Z,2.30
2022-09-07T08:03:26.205Z,2.05
2022-09-07T08:05:54.668Z,2.10
2022-09-07T08:08:23.715Z,2.25
2022-09-07T08:10:51.131Z,2.20
2022-09-07T08:13:19.198Z,1.88
2022-09-07T08:15:46.809Z,2.20
2022-09-07T08:18:15.976Z,1.60
2022-09-07T08:20:43.661Z,2.00
2022-09-07T08:23:11.644Z,1.83
2022-09-07T08:25:39.168Z,2.00
2022-09-07T08:28:06.464Z,1.90
2022-09-07T08:30:33.728Z,2.45
2022-09-07T08:33:01.008Z,2.22
2022-09-07T08:35:28.224Z,2.10
2022-09-07T08:37:55.444Z,2.00
2022-09-07T08:40:22.856Z,2.00
2022-09-07T08:43:07.018Z,2.13
2022-09-07T08:45:43.288Z,1.63
2022-09-07T08:48:16.499Z,1.75
2022-09-07T08:50:51.469Z,1.90
2022-09-07T08:53:20.942Z,2.03
2022-09-07T08:55:55.411Z,1.70
2022-09-07T08:58:49.047Z,1.70
2022-09-07T09:01:39.587Z,1.67
2022-09-07T09:04:24.810Z,1.92
2022-09-07T09:07:03.551Z,1.52
2022-09-07T09:09:40.651Z,1.80
2022-09-07T09:12:42.994Z,1.70
2022-09-07T09:16:00.382Z,1.60
2022-09-07T09:18:39.351Z,1.67
2022-09-07T09:21:13.076Z,1.55
2022-09-07T09:23:42.945Z,1.67
2022-09-07T09:26:22.893Z,1.50
2022-09-07T09:28:50.322Z,1.20
2022-09-07T09:31:20.018Z,1.35
2022-09-07T09:34:05.751Z,1.55
2022-09-07T09:36:36.097Z,1.35
2022-09-07T09:39:37.924Z,1.55
2022-09-07T09:42:11.032Z,1.15
2022-09-07T09:44:39.001Z,1.30
2022-09-07T09:49:55.217Z,1.15
2022-09-07T09:52:29.659Z,1.30
2022-09-07T09:55:23.186Z,1.10
2022-09-07T10:01:23.824Z,1.05
2022-09-07T10:03:56.125Z,1.27
2022-09-07T10:06:24.737Z,1.05
2022-09-07T10:09:02.086Z,1.20
2022-09-07T10:12:08.149Z,1.20
2022-09-07T10:14:38.563Z,1.50
2022-09-07T10:17:27.817Z,1.17
2022-09-07T10:20:21.354Z,1.15
2022-09-07T10:22:54.754Z,1.00
2022-09-07T10:25:34.836Z,1.20
2022-09-07T10:28:15.544Z,1.20
2022-09-07T10:30:58.205Z,1.10
2022-09-07T10:36:41.452Z,1.20
2022-09-07T10:39:25.376Z,1.10
2022-09-07T10:42:09.522Z,1.27
2022-09-07T10:45:00.909Z,1.42
2022-09-07T10:47:28.132Z,1.25
2022-09-07T10:50:30.896Z,1.70
2022-09-07T10:53:43.414Z,1.90
2022-09-07T10:56:16.033Z,2.55
2022-09-07T10:59:07.968Z,2.15
2022-09-07T11:02:12.476Z,3.30
2022-09-07T11:04:53.233Z,3.03
2022-09-07T11:07:48.837Z,2.80
2022-09-07T11:10:49.627Z,3.47
2022-09-07T11:13:22.911Z,3.85
2022-09-07T11:16:05.243Z,3.80
2022-09-07T11:18:41.128Z,3.60
2022-09-07T11:21:56.073Z,5.18
2022-09-07T11:24:12.136Z,4.43
2022-09-07T11:26:53.773Z,4.25
2022-09-07T11:29:36.511Z,3.92
2022-09-07T11:32:12.827Z,4.28
2022-09-07T11:34:52.100Z,4.00
2022-09-07T11:37:46.516Z,4.28
2022-09-07T11:40:27.644Z,4.23
2022-09-07T11:43:02.631Z,3.92
2022-09-07T11:45:42.144Z,4.85
2022-09-07T11:48:20.634Z,4.10
2022-09-07T11:51:01.647Z,3.35
2022-09-07T11:53:36.535Z,3.22
2022-09-07T11:56:19.763Z,3.17
2022-09-07T11:58:47.742Z,3.60
2022-09-07T12:01:28.644Z,3.08
2022-09-07T12:04:16.453Z,2.67
2022-09-07T12:06:46.862Z,3.25
2022-09-07T12:09:43.918Z,3.45
2022-09-07T12:12:29.787Z,2.70
2022-09-07T12:15:12.802Z,2.67
2022-09-07T12:18:24.891Z,2.40
2022-09-07T12:20:52.388Z,2.50
2022-09-07T12:23:31.827Z,2.20
2022-09-07T12:26:33.301Z,2.30
2022-09-07T12:29:00.470Z,2.22
2022-09-07T12:31:58.342Z,2.60
2022-09-07T12:34:32.550Z,1.70
2022-09-07T12:37:33.981Z,2.20
2022-09-07T12:40:36.198Z,1.90
2022-09-07T12:43:15.371Z,2.08
2022-09-07T12:45:42.592Z,2.25
2022-09-07T12:48:15.678Z,2.15
2022-09-07T12:51:09.688Z,1.95
2022-09-07T12:53:48.825Z,1.90
2022-09-07T12:56:24.631Z,2.00
2022-09-07T12:59:25.836Z,2.10
2022-09-07T13:02:11.222Z,1.90
2022-09-07T13:05:06.421Z,2.05
2022-09-07T13:07:49.766Z,1.70
2022-09-07T13:10:33.753Z,2.22
2022-09-07T13:13:14.483Z,2.20
2022-09-07T13:15:46.497Z,1.58
2022-09-07T13:18:26.570Z,1.77
2022-09-07T13:21:08.853Z,1.73
2022-09-07T13:23:40.939Z,1.45
2022-09-07T13:26:12.204Z,1.58
2022-09-07T13:28:42.553Z,1.60
2022-09-07T13:31:40.941Z,1.60
2022-09-07T13:34:29.701Z,1.40
2022-09-07T13:36:57.466Z,1.40
2022-09-07T13:39:25.591Z,1.45
2022-09-07T13:41:58.158Z,1.42
2022-09-07T13:44:33.620Z,1.33
2022-09-07T13:47:31.175Z,1.50
2022-09-07T13:50:17.664Z,1.20
2022-09-07T13:52:53.779Z,1.13
2022-09-07T13:55:32.153Z,1.30
2022-09-07T13:58:14.655Z,1.50
2022-09-07T14:00:53.834Z,1.48
2022-09-07T14:03:23.975Z,1.42
2022-09-07T14:06:20.345Z,1.60
2022-09-07T14:08:53.495Z,1.40
2022-09-07T14:11:30.033Z,1.40
2022-09-07T14:14:31.011Z,1.00
2022-09-07T14:17:01.350Z,1.10
2022-09-07T14:19:34.518Z,1.15
2022-09-07T14:22:08.657Z,0.95
2022-09-07T14:24:43.070Z,1.30
2022-09-07T14:27:34.992Z,1.08
2022-09-07T14:30:28.466Z,1.13
2022-09-07T14:33:06.150Z,1.08
2022-09-07T14:35:36.910Z,1.08
2022-09-07T14:41:15.225Z,1.00
2022-09-07T14:43:51.793Z,0.90
2022-09-07T14:46:29.294Z,1.05
2022-09-07T14:49:02.777Z,1.13
2022-09-07T14:51:36.608Z,1.25
2022-09-07T14:54:06.789Z,1.20
2022-09-07T14:56:41.628Z,1.23
2022-09-07T14:59:33.210Z,1.35
2022-09-07T15:02:18.530Z,1.77
2022-09-07T15:05:09.879Z,2.05
2022-09-07T15:07:45.158Z,1.60
2022-09-07T15:10:26.128Z,1.58
2022-09-07T15:12:56.077Z,1.73
2022-09-07T15:15:40.234Z,1.63
2022-09-07T15:18:49.940Z,1.25
2022-09-07T15:21:17.463Z,1.77
2022-09-07T15:23:49.565Z,1.90
2022-09-07T15:29:18.715Z,1.75
2022-09-07T15:31:59.264Z,2.13
2022-09-07T15:34:29.800Z,1.90
2022-09-07T15:37:00.213Z,2.20
2022-09-07T15:39:34.434Z,2.20
2022-09-07T15:42:59.627Z,1.90
2022-09-07T15:44:50.216Z,1.85
2022-09-07T15:50:08.511Z,2.03
2022-09-07T15:52:36.059Z,2.08
2022-09-07T15:55:03.530Z,2.10
2022-09-07T16:00:19.564Z,2.05
2022-09-07T16:03:05.762Z,1.83
2022-09-07T16:05:34.505Z,1.70
2022-09-07T16:10:54.447Z,1.83
2022-09-07T16:13:24.144Z,2.00
2022-09-07T16:15:51.840Z,1.58
2022-09-07T16:18:19.627Z,1.60
2022-09-07T16:20:47.317Z,1.70
2022-09-07T16:23:16.704Z,2.08
2022-09-07T16:25:57.074Z,2.20
2022-09-07T16:28:25.313Z,1.80
2022-09-07T16:30:52.519Z,2.15
2022-09-07T16:33:19.816Z,1.70
2022-09-07T16:35:59.475Z,1.88
2022-09-07T16:41:27.468Z,1.65
2022-09-07T16:43:55.391Z,1.88
2022-09-07T16:46:25.353Z,1.80
2022-09-07T16:48:53.341Z,1.73
2022-09-07T16:51:22.644Z,1.80
2022-09-07T16:53:51.755Z,1.55
2022-09-07T16:56:21.616Z,1.38
2022-09-07T16:58:51.867Z,1.80
2022-09-07T17:01:21.873Z,1.70
2022-09-07T17:03:50.354Z,1.48
2022-09-07T17:06:20.332Z,1.30
2022-09-07T17:08:48.063Z,1.60
2022-09-07T17:11:21.333Z,1.95
2022-09-07T17:13:49.725Z,2.42
2022-09-07T17:16:20.687Z,4.20
2022-09-07T17:21:38.308Z,4.70
2022-09-07T17:24:07.119Z,4.05
2022-09-07T17:26:34.382Z,4.38
2022-09-07T17:29:01.963Z,4.07
2022-09-07T17:34:20.142Z,2.67
2022-09-07T17:36:47.681Z,2.83
2022-09-07T17:39:17.300Z,2.42
2022-09-07T17:41:46.362Z,2.15
2022-09-07T17:44:13.617Z,2.47
2022-09-07T17:46:40.975Z,2.50
2022-09-07T17:49:12.326Z,2.67
2022-09-07T17:51:39.894Z,1.90
2022-09-07T17:54:11.378Z,2.28
2022-09-07T17:56:40.364Z,2.33
2022-09-07T18:01:56.641Z,2.35
2022-09-07T18:04:24.622Z,2.22
2022-09-07T18:06:53.239Z,2.20
2022-09-07T18:09:20.460Z,2.40
2022-09-07T18:11:49.308Z,1.92
2022-09-07T18:14:17.892Z,1.80
2022-09-07T18:16:46.657Z,2.38
2022-09-07T18:19:14.566Z,2.28
2022-09-07T18:21:42.913Z,1.92
2022-09-07T18:24:19.502Z,1.73
2022-09-07T18:26:51.041Z,1.73
2022-09-07T18:29:31.060Z,2.08
2022-09-07T18:32:02.419Z,2.45
2022-09-07T18:34:31.886Z,2.20
2022-09-07T18:36:59.974Z,2.22
2022-09-07T18:39:27.766Z,2.10
2022-09-07T18:41:55.561Z,1.90
2022-09-07T18:47:21.464Z,1.80
2022-09-07T18:49:51.306Z,2.28
2022-09-07T18:55:08.611Z,1.77
2022-09-07T18:57:36.512Z,2.10
2022-09-07T19:00:05.923Z,1.85
2022-09-07T19:02:33.633Z,2.38
2022-09-07T19:07:48.497Z,1.65
2022-09-07T19:10:16.802Z,1.95
2022-09-07T19:12:46.069Z,1.42
2022-09-07T19:15:13.997Z,1.63
2022-09-07T19:17:41.271Z,1.60
2022-09-07T19:20:09.155Z,1.67
2022-09-07T19:22:36.481Z,1.60
2022-09-07T19:25:03.907Z,1.70
2022-09-07T19:27:33.034Z,1.52
2022-09-07T19:30:00.691Z,1.63
2022-09-07T19:32:28.405Z,1.83
2022-09-07T19:34:55.958Z,1.90
2022-09-07T19:37:28.130Z,1.77
2022-09-07T19:39:55.593Z,1.40
2022-09-07T19:42:23.962Z,1.60
2022-09-07T19:44:52.163Z,1.30
2022-09-07T19:47:20.110Z,1.50
2022-09-07T19:49:47.586Z,1.40
2022-09-07T19:52:15.392Z,1.38
2022-09-07T19:54:42.858Z,1.27
2022-09-07T19:57:10.195Z,1.55
2022-09-07T19:59:37.431Z,1.75
2022-09-07T20:02:04.774Z,1.40
2022-09-07T20:04:32.080Z,1.75
2022-09-07T20:06:59.328Z,1.65
2022-09-07T20:09:27.154Z,1.52
2022-09-07T20:11:54.449Z,2.08
2022-09-07T20:14:22.068Z,1.60
2022-09-07T20:16:49.346Z,2.17
2022-09-07T20:19:17.309Z,1.55
2022-09-07T20:21:44.613Z,1.80
2022-09-07T20:24:13.216Z,1.70
2022-09-07T20:26:40.552Z,1.90
2022-09-07T20:29:26.560Z,2.10
2022-09-07T20:31:55.783Z,1.70
2022-09-07T20:34:23.090Z,1.50
2022-09-07T20:36:51.271Z,1.58
2022-09-07T20:39:19.512Z,1.42
2022-09-07T20:41:47.349Z,2.00
2022-09-07T20:44:14.793Z,1.60
2022-09-07T20:46:42.681Z,1.80
2022-09-07T20:49:10.208Z,1.48
2022-09-07T20:51:37.616Z,1.58
2022-09-07T20:54:04.986Z,1.45
2022-09-07T20:56:32.544Z,1.83
2022-09-07T20:59:02.103Z,1.40
2022-09-07T21:01:31.324Z,1.15
2022-09-07T21:04:00.581Z,1.58
2022-09-07T21:06:29.289Z,1.40
2022-09-07T21:08:59.607Z,1.40
2022-09-07T21:11:32.508Z,1.30
2022-09-07T21:14:12.822Z,1.50
2022-09-07T21:16:40.465Z,2.10
2022-09-07T21:19:10.946Z,1.40
2022-09-07T21:21:42.985Z,1.25
2022-09-07T21:24:21.928Z,1.27
2022-09-07T21:26:50.328Z,1.42
2022-09-07T21:29:20.320Z,1.40
2022-09-07T21:31:48.118Z,1.20
2022-09-07T21:34:16.426Z,1.40
2022-09-07T21:36:44.014Z,1.40
2022-09-07T21:39:14.493Z,1.63
2022-09-07T21:41:42.590Z,1.10
2022-09-07T21:44:13.465Z,1.58
2022-09-07T21:46:41.499Z,1.35
2022-09-07T21:49:09.160Z,1.30
2022-09-07T21:51:37.833Z,1.20
2022-09-07T21:54:05.574Z,1.00
2022-09-07T21:56:32.953Z,1.50
2022-09-07T21:59:02.024Z,1.50
2022-09-07T22:01:31.240Z,1.52
2022-09-07T22:04:03.990Z,1.20
2022-09-07T22:06:34.774Z,1.20
2022-09-07T22:09:03.801Z,1.20
2022-09-07T22:11:31.449Z,1.10
2022-09-07T22:14:04.067Z,1.00
2022-09-07T22:16:33.257Z,1.10
2022-09-07T22:19:00.962Z,1.30
2022-09-07T22:21:29.551Z,0.90
2022-09-07T22:23:59.611Z,1.15
2022-09-07T22:26:29.075Z,1.20
2022-09-07T22:28:57.384Z,1.10
2022-09-07T22:31:30.642Z,1.10
2022-09-07T22:33:59.638Z,1.10
2022-09-07T22:36:32.578Z,0.98
2022-09-07T22:39:02.330Z,1.20
2022-09-07T22:41:35.176Z,1.20
2022-09-07T22:44:02.674Z,1.10
2022-09-07T22:46:34.364Z,1.00
2022-09-07T22:49:01.690Z,1.10
2022-09-07T22:51:29.081Z,1.10
2022-09-07T22:53:57.294Z,0.93
2022-09-07T22:56:27.697Z,1.20
2022-09-07T22:59:00.436Z,1.40
2022-09-07T23:01:29.405Z,1.13
2022-09-07T23:03:57.067Z,1.08
2022-09-07T23:06:28.292Z,1.00
2022-09-07T23:08:57.358Z,1.30
2022-09-07T23:11:25.676Z,1.10
2022-09-07T23:13:58.824Z,0.90
2022-09-07T23:16:28.079Z,1.20
2022-09-07T23:18:59.178Z,1.27
2022-09-07T23:21:27.474Z,1.00
2022-09-07T23:23:56.884Z,0.95
2022-09-07T23:26:25.406Z,1.30
2022-09-07T23:28:54.219Z,1.00
2022-09-07T23:31:22.866Z,1.05
2022-09-07T23:33:50.669Z,1.10
2022-09-07T23:36:19.175Z,1.05
2022-09-07T23:38:47.571Z,1.15
2022-09-07T23:41:17.302Z,0.90
2022-09-07T23:43:44.653Z,1.00
2022-09-07T23:46:13.440Z,1.20
2022-09-07T23:48:42.627Z,1.40
2022-09-07T23:51:10.406Z,0.80
2022-09-07T23:53:37.758Z,1.08
2022-09-07T23:56:05.347Z,0.90
2022-09-07T23:58:32.675Z,0.88
